Time;durP1;ratioP1;P1;durP2;ratioP2;P2;SDS_P1;SDS_P2;PMS_P1;PMS_P2;Temp;Humidity;BMP_temperature;BMP_pressure;BME280_temperature;BME280_humidity;BME280_pressure;Samples;Min_cycle;Max_cycle;Signal;HPM_P1;HPM_P2
2023/09/22 00:00:10;;;;;;;4.00;1.10;;;16.70;99.90;;;;;;5007017;28;20820;-73
2023/09/22 00:02:39;;;;;;;6.43;0.77;;;16.70;99.90;;;;;;5007412;28;20233;-73
2023/09/22 00:05:10;;;;;;;1.70;1.02;;;16.70;99.90;;;;;;5009999;28;20221;-73
2023/09/22 00:07:38;;;;;;;4.22;0.85;;;16.80;99.90;;;;;;5004822;28;20584;-73
2023/09/22 00:10:07;;;;;;;2.85;0.90;;;16.70;99.90;;;;;;5003773;28;20293;-75
2023/09/22 00:12:36;;;;;;;1.40;0.73;;;16.70;99.90;;;;;;5005208;28;20235;-73
2023/09/22 00:15:05;;;;;;;1.08;1.08;;;16.70;99.90;;;;;;5008475;28;20206;-75
2023/09/22 00:17:35;;;;;;;5.47;0.90;;;16.70;99.90;;;;;;5008427;28;20227;-73
2023/09/22 00:20:07;;;;;;;3.78;0.63;;;16.60;99.90;;;;;;5008034;28;20261;-74
2023/09/22 00:22:37;;;;;;;3.83;0.80;;;16.60;99.90;;;;;;5008786;28;20284;-75
2023/09/22 00:25:05;;;;;;;3.20;0.82;;;16.50;99.90;;;;;;5008632;28;20261;-74
2023/09/22 00:27:33;;;;;;;2.38;0.88;;;16.50;99.90;;;;;;5006861;28;20265;-75
2023/09/22 00:30:03;;;;;;;1.90;0.70;;;16.50;99.90;;;;;;5010936;28;20566;-74
2023/09/22 00:32:31;;;;;;;3.42;0.98;;;16.40;99.90;;;;;;5011370;28;20222;-74
2023/09/22 00:34:59;;;;;;;1.77;1.20;;;16.40;99.90;;;;;;5011169;28;20223;-74
2023/09/22 00:37:26;;;;;;;1.17;0.88;;;16.40;99.90;;;;;;5001397;28;20668;-74
2023/09/22 00:39:54;;;;;;;3.95;1.02;;;16.40;99.90;;;;;;5011074;28;20684;-76
2023/09/22 00:42:22;;;;;;;1.75;0.70;;;16.40;99.90;;;;;;5010410;28;20229;-76
2023/09/22 00:44:51;;;;;;;3.13;0.90;;;16.30;99.90;;;;;;5011457;28;20269;-74
2023/09/22 00:47:20;;;;;;;1.45;0.80;;;16.30;99.90;;;;;;5010998;28;20293;-74
2023/09/22 00:49:48;;;;;;;2.03;0.90;;;16.30;99.90;;;;;;5010865;28;20241;-73
2023/09/22 00:52:18;;;;;;;6.22;0.90;;;16.30;99.90;;;;;;5010891;28;20223;-74
2023/09/22 00:54:46;;;;;;;1.08;0.75;;;16.20;99.90;;;;;;5009370;28;20219;-73
2023/09/22 00:57:14;;;;;;;2.28;0.80;;;16.20;99.90;;;;;;5008839;28;20223;-74
2023/09/22 00:59:42;;;;;;;1.00;0.90;;;16.20;99.90;;;;;;5005601;28;20207;-74
2023/09/22 01:02:11;;;;;;;1.23;0.90;;;16.10;99.90;;;;;;5003768;28;20296;-74
2023/09/22 01:04:40;;;;;;;2.28;0.93;;;16.10;99.90;;;;;;5002904;28;20211;-73
2023/09/22 01:07:09;;;;;;;1.42;0.90;;;16.10;99.90;;;;;;5010081;28;20665;-74
2023/09/22 01:09:37;;;;;;;2.05;0.95;;;16.10;99.90;;;;;;5008774;28;20238;-75
2023/09/22 01:12:06;;;;;;;1.13;0.88;;;16.10;99.90;;;;;;5008512;28;20747;-74
2023/09/22 01:14:34;;;;;;;1.20;0.90;;;16.10;99.90;;;;;;5008711;28;20253;-73
2023/09/22 01:17:02;;;;;;;2.40;0.95;;;16.10;99.90;;;;;;5010309;28;20222;-75
2023/09/22 01:19:30;;;;;;;0.60;0.60;;;16.10;99.90;;;;;;5014553;28;20290;-74
2023/09/22 01:21:59;;;;;;;5.65;1.00;;;16.10;99.90;;;;;;5013966;28;20237;-74
2023/09/22 01:24:27;;;;;;;4.47;0.82;;;16.10;99.90;;;;;;5007269;28;20290;-73
2023/09/22 01:26:55;;;;;;;1.95;0.70;;;16.00;99.90;;;;;;5011002;28;20206;-74
2023/09/22 01:29:23;;;;;;;3.05;0.80;;;16.10;99.90;;;;;;5013765;28;20204;-74
2023/09/22 01:31:51;;;;;;;3.40;1.05;;;16.10;99.90;;;;;;5011205;28;20241;-73
2023/09/22 01:34:20;;;;;;;4.57;0.90;;;16.00;99.90;;;;;;5005083;28;20306;-73
2023/09/22 01:36:48;;;;;;;2.42;0.80;;;16.00;99.90;;;;;;5013512;28;20221;-75
2023/09/22 01:39:17;;;;;;;2.25;0.80;;;16.00;99.90;;;;;;5012524;28;20693;-74
2023/09/22 01:41:45;;;;;;;2.08;0.90;;;16.00;99.90;;;;;;5010576;28;20214;-74
2023/09/22 01:44:13;;;;;;;5.43;1.13;;;16.00;99.90;;;;;;5014049;28;20298;-73
2023/09/22 01:46:41;;;;;;;1.48;0.77;;;15.90;99.90;;;;;;5014534;28;20298;-74
2023/09/22 01:49:09;;;;;;;3.85;1.13;;;15.90;99.90;;;;;;5013754;28;20231;-74
2023/09/22 01:51:38;;;;;;;6.00;1.35;;;15.90;99.90;;;;;;5013703;28;20568;-75
2023/09/22 01:54:07;;;;;;;1.65;0.60;;;15.80;99.90;;;;;;5013731;28;20313;-75
2023/09/22 01:56:36;;;;;;;3.03;0.90;;;15.80;99.90;;;;;;5007131;28;20239;-76
2023/09/22 01:59:04;;;;;;;5.40;1.20;;;15.80;99.90;;;;;;5010420;28;20332;-75
2023/09/22 02:01:32;;;;;;;3.63;0.77;;;15.80;99.90;;;;;;5012568;28;20203;-75
2023/09/22 02:04:00;;;;;;;4.20;0.90;;;15.80;99.90;;;;;;5013796;28;20227;-75
2023/09/22 02:06:28;;;;;;;1.70;0.73;;;15.80;99.90;;;;;;5013889;28;20688;-75
2023/09/22 02:08:56;;;;;;;2.13;0.80;;;15.80;99.90;;;;;;5009964;28;20206;-73
2023/09/22 02:11:24;;;;;;;0.90;0.77;;;15.80;99.90;;;;;;5012340;28;20234;-75
2023/09/22 02:13:54;;;;;;;4.18;0.90;;;15.80;99.90;;;;;;5008768;28;20265;-77
2023/09/22 02:16:22;;;;;;;3.58;0.80;;;15.80;99.90;;;;;;5011361;28;20234;-74
2023/09/22 02:18:50;;;;;;;1.98;0.90;;;15.70;99.90;;;;;;5012420;28;20664;-74
2023/09/22 02:21:18;;;;;;;1.95;1.08;;;15.60;99.90;;;;;;5012938;28;20206;-74
2023/09/22 02:23:46;;;;;;;1.33;0.80;;;15.60;99.90;;;;;;5012951;28;20712;-73
2023/09/22 02:26:14;;;;;;;2.80;0.90;;;15.60;99.90;;;;;;5011966;28;20573;-74
2023/09/22 02:28:42;;;;;;;2.05;1.02;;;15.50;99.90;;;;;;5013112;28;20269;-74
2023/09/22 02:31:12;;;;;;;4.28;0.80;;;15.50;99.90;;;;;;5013157;28;20209;-74
2023/09/22 02:33:40;;;;;;;2.53;0.82;;;15.50;99.90;;;;;;5012192;28;20254;-74
2023/09/22 02:36:08;;;;;;;1.88;0.80;;;15.50;99.90;;;;;;5013583;28;20609;-74
2023/09/22 02:38:36;;;;;;;1.02;0.75;;;15.50;99.90;;;;;;5013382;28;20227;-73
2023/09/22 02:41:04;;;;;;;1.10;0.82;;;15.40;99.90;;;;;;5012172;28;20235;-73
2023/09/22 02:43:32;;;;;;;1.40;0.77;;;15.40;99.90;;;;;;5013724;28;20231;-74
2023/09/22 02:46:03;;;;;;;2.70;0.95;;;15.40;99.90;;;;;;5013445;28;20242;-74
2023/09/22 02:48:32;;;;;;;2.58;0.80;;;15.40;99.90;;;;;;5013566;28;20191;-74
2023/09/22 02:51:00;;;;;;;5.18;0.90;;;15.40;99.90;;;;;;5013520;28;20585;-74
2023/09/22 02:53:28;;;;;;;4.60;0.70;;;15.40;99.90;;;;;;5013142;28;20237;-75
2023/09/22 02:55:58;;;;;;;1.17;0.90;;;15.40;99.90;;;;;;5013192;28;20231;-74
2023/09/22 02:58:26;;;;;;;3.53;0.77;;;15.40;99.90;;;;;;5005596;28;20251;-74
2023/09/22 03:00:54;;;;;;;5.28;1.13;;;15.40;99.90;;;;;;5013284;28;20230;-75
2023/09/22 03:03:22;;;;;;;3.95;0.88;;;15.40;99.90;;;;;;5012861;28;20227;-74
2023/09/22 03:05:51;;;;;;;3.05;0.80;;;15.30;99.90;;;;;;5006745;28;20206;-75
2023/09/22 03:08:19;;;;;;;2.08;0.82;;;15.30;99.90;;;;;;5008405;28;20252;-75
2023/09/22 03:10:47;;;;;;;4.00;0.98;;;15.30;99.90;;;;;;5010931;28;20286;-74
2023/09/22 03:13:15;;;;;;;2.28;0.80;;;15.30;99.90;;;;;;5012572;28;20314;-75
2023/09/22 03:15:43;;;;;;;3.28;0.95;;;15.20;99.90;;;;;;5010225;28;20222;-74
2023/09/22 03:18:11;;;;;;;8.98;1.00;;;15.20;99.90;;;;;;5007261;28;20200;-75
2023/09/22 03:20:39;;;;;;;6.22;0.77;;;15.20;99.90;;;;;;5006346;28;20199;-75
2023/09/22 03:23:08;;;;;;;3.90;0.82;;;15.20;99.90;;;;;;5008585;28;20231;-75
2023/09/22 03:25:36;;;;;;;1.92;0.65;;;15.10;99.90;;;;;;5006204;28;20294;-76
2023/09/22 03:28:05;;;;;;;3.90;0.73;;;15.10;99.90;;;;;;5012176;28;20863;-75
2023/09/22 03:30:33;;;;;;;2.45;0.60;;;15.10;99.90;;;;;;5010294;28;20200;-75
2023/09/22 03:33:01;;;;;;;0.82;0.82;;;15.10;99.90;;;;;;4997870;28;20286;-75
2023/09/22 03:35:29;;;;;;;3.47;0.70;;;15.10;99.90;;;;;;5011597;28;20207;-74
2023/09/22 03:37:58;;;;;;;2.15;0.80;;;15.10;99.90;;;;;;5012240;28;20401;-73
2023/09/22 03:40:32;;;;;;;4.18;0.90;;;15.10;99.90;;;;;;5010917;28;20265;-72
2023/09/22 03:43:01;;;;;;;3.67;1.10;;;15.10;99.90;;;;;;5007447;28;20341;-72
2023/09/22 03:45:29;;;;;;;1.67;0.80;;;15.10;99.90;;;;;;5011852;28;20673;-74
2023/09/22 03:47:57;;;;;;;4.13;0.90;;;15.10;99.90;;;;;;5011746;28;20648;-72
2023/09/22 03:50:25;;;;;;;7.32;0.70;;;15.10;99.90;;;;;;5011947;28;20202;-72
2023/09/22 03:52:53;;;;;;;2.42;0.75;;;15.10;99.90;;;;;;5009841;28;20229;-72
2023/09/22 03:55:21;;;;;;;3.85;0.80;;;15.10;99.90;;;;;;5011660;28;20290;-72
2023/09/22 03:57:50;;;;;;;9.38;0.90;;;15.00;99.90;;;;;;5009408;28;20238;-72
2023/09/22 04:00:19;;;;;;;1.95;0.77;;;15.00;99.90;;;;;;5006466;28;20254;-72
2023/09/22 04:02:49;;;;;;;2.15;0.80;;;15.00;99.90;;;;;;5005788;28;20238;-74
2023/09/22 04:05:17;;;;;;;2.92;0.90;;;15.00;99.90;;;;;;5011764;28;20207;-74
2023/09/22 04:07:45;;;;;;;2.95;0.90;;;15.00;99.90;;;;;;5011306;28;20610;-74
2023/09/22 04:10:15;;;;;;;4.60;1.20;;;15.00;99.90;;;;;;5008650;28;20246;-74
2023/09/22 04:12:43;;;;;;;3.38;0.93;;;15.00;99.90;;;;;;5005482;28;20309;-75
2023/09/22 04:15:12;;;;;;;1.95;1.00;;;15.00;99.90;;;;;;5008747;28;20574;-72
2023/09/22 04:17:40;;;;;;;3.03;1.10;;;14.90;99.90;;;;;;5004445;28;20199;-73
2023/09/22 04:20:12;;;;;;;2.78;1.20;;;14.90;99.90;;;;;;5011247;28;20647;-73
2023/09/22 04:22:43;;;;;;;2.78;0.90;;;14.90;99.90;;;;;;5004010;28;20223;-76
2023/09/22 04:25:18;;;;;;;6.90;1.13;;;15.00;99.90;;;;;;5011271;28;20211;-75
2023/09/22 04:27:53;;;;;;;3.38;1.10;;;15.00;99.90;;;;;;5003637;28;20253;-76
2023/09/22 04:30:24;;;;;;;5.35;0.82;;;15.00;99.90;;;;;;5010263;28;20195;-72
2023/09/22 04:32:53;;;;;;;1.92;1.00;;;15.00;99.90;;;;;;5005490;28;20223;-76
2023/09/22 04:35:21;;;;;;;2.85;1.02;;;15.10;99.90;;;;;;5008349;28;20684;-73
2023/09/22 04:37:50;;;;;;;3.05;1.25;;;15.10;99.90;;;;;;5006339;28;20672;-75
2023/09/22 04:40:24;;;;;;;3.25;1.23;;;15.10;99.90;;;;;;5007881;28;20306;-76
2023/09/22 04:42:53;;;;;;;4.43;1.30;;;15.20;99.90;;;;;;5007194;28;20231;-77
2023/09/22 04:45:23;;;;;;;6.28;1.30;;;15.20;99.90;;;;;;5011083;28;20215;-76
2023/09/22 04:47:52;;;;;;;4.93;1.08;;;15.20;99.90;;;;;;5007613;28;20645;-76
2023/09/22 04:50:21;;;;;;;4.30;1.63;;;15.20;99.90;;;;;;5007842;28;20207;-76
2023/09/22 04:52:50;;;;;;;3.38;1.00;;;15.20;99.90;;;;;;5007583;28;20338;-76
2023/09/22 04:55:19;;;;;;;4.18;1.45;;;15.20;99.90;;;;;;5014266;28;20668;-75
2023/09/22 04:57:48;;;;;;;1.85;1.00;;;15.20;99.90;;;;;;5011175;28;20583;-76
2023/09/22 05:00:16;;;;;;;3.17;1.20;;;15.20;99.90;;;;;;5014061;28;20269;-76
2023/09/22 05:02:46;;;;;;;4.28;1.30;;;15.20;99.90;;;;;;5012714;28;20229;-76
2023/09/22 05:05:16;;;;;;;1.75;1.35;;;15.20;99.90;;;;;;5014367;28;20203;-76
2023/09/22 05:07:44;;;;;;;5.90;1.10;;;15.30;99.90;;;;;;5018085;28;20195;-76
2023/09/22 05:10:12;;;;;;;3.92;1.35;;;15.30;99.90;;;;;;5014397;28;20698;-77
2023/09/22 05:12:40;;;;;;;4.78;0.90;;;15.30;99.90;;;;;;5014102;28;20227;-77
2023/09/22 05:15:09;;;;;;;2.55;1.13;;;15.30;99.90;;;;;;5017675;28;20299;-76
2023/09/22 05:17:37;;;;;;;4.25;1.40;;;15.30;99.90;;;;;;5014254;28;20608;-75
2023/09/22 05:20:14;;;;;;;2.72;1.10;;;15.30;99.90;;;;;;5014202;28;20593;-76
2023/09/22 05:22:42;;;;;;;2.13;1.20;;;15.20;99.90;;;;;;5005840;28;20285;-77
2023/09/22 05:25:12;;;;;;;1.27;1.05;;;15.20;99.90;;;;;;5013891;28;20214;-76
2023/09/22 05:27:42;;;;;;;5.10;1.60;;;15.20;99.90;;;;;;5012215;28;20732;-76
2023/09/22 05:30:12;;;;;;;4.07;1.15;;;15.20;99.90;;;;;;5011539;28;20203;-73
2023/09/22 05:32:41;;;;;;;4.90;1.58;;;15.20;99.90;;;;;;5011836;28;20242;-73
2023/09/22 05:35:11;;;;;;;5.88;1.27;;;15.20;99.90;;;;;;5014648;28;20294;-73
2023/09/22 05:37:38;;;;;;;5.25;1.30;;;15.10;99.90;;;;;;5014103;28;20618;-73
2023/09/22 05:40:12;;;;;;;5.25;1.50;;;15.10;99.90;;;;;;5014099;28;20321;-73
2023/09/22 05:42:42;;;;;;;3.42;1.52;;;15.10;99.90;;;;;;5013851;28;20258;-73
2023/09/22 05:45:09;;;;;;;3.22;1.13;;;15.10;99.90;;;;;;5014382;28;20226;-73
2023/09/22 05:47:37;;;;;;;8.02;1.27;;;15.10;99.90;;;;;;5014046;28;20253;-73
2023/09/22 05:50:07;;;;;;;5.38;1.67;;;15.10;99.90;;;;;;5014555;28;20324;-72
2023/09/22 05:52:36;;;;;;;3.45;1.15;;;15.10;99.90;;;;;;5014533;28;20315;-72
2023/09/22 05:55:07;;;;;;;3.90;1.27;;;15.10;99.90;;;;;;5014314;28;20234;-72
2023/09/22 05:57:35;;;;;;;3.70;1.50;;;15.10;99.90;;;;;;5014299;28;20214;-72
2023/09/22 06:00:15;;;;;;;3.70;1.30;;;15.20;99.90;;;;;;5014471;28;20223;-72
2023/09/22 06:02:47;;;;;;;3.63;1.50;;;15.20;99.90;;;;;;5005471;28;20223;-72
2023/09/22 06:05:16;;;;;;;1.85;1.02;;;15.20;99.90;;;;;;5014226;28;20238;-72
2023/09/22 06:07:45;;;;;;;3.55;1.15;;;15.20;99.90;;;;;;5013814;28;20249;-72
2023/09/22 06:10:13;;;;;;;0.98;0.88;;;15.20;99.90;;;;;;5012643;28;20221;-72
2023/09/22 06:12:41;;;;;;;1.67;1.10;;;15.20;99.90;;;;;;5009549;28;20251;-72
2023/09/22 06:15:10;;;;;;;3.08;1.17;;;15.20;99.90;;;;;;5014073;28;20211;-72
2023/09/22 06:17:38;;;;;;;2.85;1.00;;;15.30;99.90;;;;;;5013421;28;20257;-72
2023/09/22 06:20:13;;;;;;;3.72;1.10;;;15.30;99.90;;;;;;5014264;28;20680;-72
2023/09/22 06:22:42;;;;;;;3.50;0.88;;;15.40;99.90;;;;;;5013852;28;20229;-72
2023/09/22 06:25:14;;;;;;;5.20;1.00;;;15.40;99.90;;;;;;5013980;28;20204;-73
2023/09/22 06:27:43;;;;;;;4.03;1.02;;;15.40;99.90;;;;;;5013523;28;20225;-72
2023/09/22 06:30:12;;;;;;;2.25;0.90;;;15.50;99.90;;;;;;5013785;28;20254;-73
2023/09/22 06:32:41;;;;;;;5.60;1.10;;;15.50;99.90;;;;;;5012795;28;20289;-72
2023/09/22 06:35:10;;;;;;;1.95;0.95;;;15.50;99.90;;;;;;5013662;28;20203;-73
2023/09/22 06:37:39;;;;;;;1.75;0.90;;;15.50;99.90;;;;;;5013335;28;20420;-73
2023/09/22 06:40:11;;;;;;;2.22;0.93;;;15.50;99.90;;;;;;5013492;28;20269;-72
2023/09/22 06:42:41;;;;;;;2.88;0.75;;;15.50;99.90;;;;;;5012925;28;20291;-73
2023/09/22 06:45:13;;;;;;;2.03;0.80;;;15.50;99.90;;;;;;5013735;28;20203;-72
2023/09/22 06:47:41;;;;;;;3.55;0.93;;;15.60;99.90;;;;;;5012700;28;21531;-73
2023/09/22 06:50:11;;;;;;;3.72;0.70;;;15.60;99.90;;;;;;5012377;28;20211;-72
2023/09/22 06:52:40;;;;;;;4.57;0.88;;;15.70;99.90;;;;;;5011965;28;20235;-74
2023/09/22 06:55:09;;;;;;;2.03;0.70;;;15.70;99.90;;;;;;5013117;28;20211;-73
2023/09/22 06:57:40;;;;;;;0.75;0.75;;;15.70;99.90;;;;;;5012861;28;20234;-73
2023/09/22 07:00:18;;;;;;;1.75;0.70;;;15.70;99.90;;;;;;5013121;28;20203;-72
2023/09/22 07:02:47;;;;;;;0.70;0.70;;;15.70;99.90;;;;;;5005003;28;20314;-72
2023/09/22 07:05:16;;;;;;;2.42;0.85;;;15.70;99.90;;;;;;5013217;28;20207;-73
2023/09/22 07:07:44;;;;;;;4.55;0.70;;;15.70;99.90;;;;;;5012524;28;20294;-72
2023/09/22 07:10:12;;;;;;;3.63;0.90;;;15.70;99.90;;;;;;5012796;28;20573;-73
2023/09/22 07:12:41;;;;;;;2.72;0.70;;;15.70;99.90;;;;;;5026121;23;20234;-57
2023/09/22 07:15:11;;;;;;;1.95;1.05;;;15.80;99.90;;;;;;5012212;28;20218;-57
2023/09/22 07:17:41;;;;;;;1.73;0.68;;;15.80;99.90;;;;;;5012448;28;20310;-57
2023/09/22 07:20:13;;;;;;;1.90;0.70;;;15.80;99.90;;;;;;5013071;28;20207;-57
2023/09/22 07:22:41;;;;;;;2.65;0.80;;;15.90;99.90;;;;;;5012320;28;20254;-56
2023/09/22 07:25:09;;;;;;;1.77;0.60;;;16.00;99.90;;;;;;5012911;28;20230;-57
2023/09/22 07:27:39;;;;;;;1.88;0.68;;;16.00;99.90;;;;;;5011962;28;20214;-56
2023/09/22 07:30:10;;;;;;;4.70;1.25;;;16.00;99.90;;;;;;5012800;28;20218;-58
2023/09/22 07:32:40;;;;;;;1.55;0.80;;;16.10;99.90;;;;;;5012305;28;20269;-57
2023/09/22 07:35:09;;;;;;;3.90;0.80;;;16.10;99.90;;;;;;5012449;28;20245;-57
2023/09/22 07:37:36;;;;;;;3.45;0.80;;;16.20;99.90;;;;;;5012023;28;20645;-54
2023/09/22 07:40:08;;;;;;;3.10;0.93;;;16.20;99.90;;;;;;5012611;28;20302;-57
2023/09/22 07:42:38;;;;;;;2.95;0.70;;;16.30;99.90;;;;;;5011949;28;20226;-57
2023/09/22 07:45:08;;;;;;;2.15;0.90;;;16.30;99.90;;;;;;5010491;28;20210;-59
2023/09/22 07:47:37;;;;;;;4.68;0.90;;;16.20;99.90;;;;;;5011250;28;20704;-57
2023/09/22 07:50:07;;;;;;;1.00;1.00;;;16.30;99.90;;;;;;5012536;28;20218;-57
2023/09/22 07:52:35;;;;;;;3.05;0.88;;;16.30;99.90;;;;;;5012054;28;20624;-57
2023/09/22 07:55:03;;;;;;;6.53;0.93;;;16.30;99.90;;;;;;5012126;28;20250;-57
2023/09/22 07:57:31;;;;;;;1.92;0.93;;;16.40;99.90;;;;;;5011586;28;20307;-59
2023/09/22 07:59:59;;;;;;;0.85;0.85;;;16.40;99.90;;;;;;5006153;28;20211;-59
2023/09/22 08:02:27;;;;;;;2.45;0.68;;;16.40;99.90;;;;;;5011756;28;20280;-59
2023/09/22 08:04:56;;;;;;;3.78;1.00;;;16.50;99.90;;;;;;5012147;28;20227;-59
2023/09/22 08:07:27;;;;;;;3.45;0.80;;;16.50;99.90;;;;;;5011849;28;20269;-58
2023/09/22 08:09:55;;;;;;;2.13;0.80;;;16.60;99.90;;;;;;5011880;28;20230;-58
2023/09/22 08:12:23;;;;;;;3.15;0.70;;;16.60;99.90;;;;;;5011642;28;20253;-58
2023/09/22 08:14:51;;;;;;;1.50;0.98;;;16.60;99.90;;;;;;5003678;28;20273;-59
2023/09/22 08:17:25;;;;;;;4.07;0.98;;;16.60;99.90;;;;;;5011698;28;20230;-60
2023/09/22 08:19:53;;;;;;;1.85;0.65;;;16.70;99.90;;;;;;5011388;28;20672;-57
2023/09/22 08:22:21;;;;;;;1.77;0.73;;;16.70;99.90;;;;;;5011485;28;20233;-59
2023/09/22 08:24:50;;;;;;;0.75;0.70;;;16.90;99.90;;;;;;5011732;28;20720;-58
2023/09/22 08:27:19;;;;;;;1.15;0.70;;;17.10;99.90;;;;;;5018616;28;20230;-60
2023/09/22 08:29:50;;;;;;;1.50;0.70;;;17.20;99.90;;;;;;5011707;28;20242;-58
2023/09/22 08:32:18;;;;;;;1.27;0.82;;;17.40;99.90;;;;;;5012240;28;20211;-59
2023/09/22 08:34:46;;;;;;;5.70;0.80;;;17.40;99.90;;;;;;5011586;28;20254;-58
2023/09/22 08:37:14;;;;;;;2.78;0.60;;;17.50;99.90;;;;;;5010810;28;20637;-60
2023/09/22 08:39:42;;;;;;;3.65;0.65;;;17.50;99.90;;;;;;5010657;28;20207;-60
2023/09/22 08:42:12;;;;;;;5.22;0.70;;;17.60;99.90;;;;;;5011809;28;20233;-60
2023/09/22 08:44:39;;;;;;;8.75;0.80;;;17.70;99.90;;;;;;5011512;28;20724;-59
2023/09/22 08:47:07;;;;;;;1.48;0.60;;;17.70;99.90;;;;;;5011808;28;20246;-60
2023/09/22 08:49:35;;;;;;;1.50;0.60;;;17.80;99.90;;;;;;5011479;28;20683;-60
2023/09/22 08:52:04;;;;;;;2.42;0.68;;;17.90;99.90;;;;;;5011541;28;20230;-60
2023/09/22 08:54:32;;;;;;;1.85;0.73;;;17.90;99.90;;;;;;5011779;28;20326;-59
2023/09/22 08:57:00;;;;;;;3.75;0.80;;;17.80;99.90;;;;;;5011203;28;20567;-59
2023/09/22 08:59:29;;;;;;;3.70;0.68;;;17.90;99.90;;;;;;5011764;28;20285;-62
2023/09/22 09:01:58;;;;;;;1.25;0.47;;;17.80;99.90;;;;;;5011182;28;20317;-60
2023/09/22 09:04:33;;;;;;;0.63;0.60;;;17.80;99.90;;;;;;5011512;28;20593;-59
2023/09/22 09:07:02;;;;;;;2.58;0.52;;;17.90;99.90;;;;;;5010777;28;20202;-60
2023/09/22 09:09:40;;;;;;;1.67;0.75;;;17.90;99.90;;;;;;5011030;28;20207;-58
2023/09/22 09:12:09;;;;;;;1.48;0.52;;;18.00;99.90;;;;;;5010629;28;20211;-59
2023/09/22 09:14:40;;;;;;;0.65;0.65;;;18.10;99.90;;;;;;5011343;28;20313;-60
2023/09/22 09:17:19;;;;;;;2.28;0.70;;;18.20;99.90;;;;;;5009302;28;20261;-59
2023/09/22 09:19:53;;;;;;;0.70;0.70;;;18.20;99.90;;;;;;5010128;28;20198;-59
2023/09/22 09:22:21;;;;;;;2.67;0.60;;;18.30;99.90;;;;;;5010461;28;20309;-60
2023/09/22 09:24:49;;;;;;;2.08;0.55;;;18.30;99.90;;;;;;5008771;28;20309;-60
2023/09/22 09:27:17;;;;;;;3.22;0.80;;;18.50;99.90;;;;;;5009931;28;20211;-59
2023/09/22 09:29:47;;;;;;;0.70;0.40;;;19.00;99.90;;;;;;5010553;28;20211;-60
2023/09/22 09:32:25;;;;;;;0.80;0.47;;;19.40;99.90;;;;;;5010489;28;20214;-59
2023/09/22 09:34:53;;;;;;;1.13;0.40;;;19.70;99.90;;;;;;5010986;28;20222;-59
2023/09/22 09:37:21;;;;;;;1.95;0.40;;;20.10;99.90;;;;;;5010613;28;20207;-60
2023/09/22 09:39:50;;;;;;;1.02;0.47;;;20.30;99.90;;;;;;5012643;28;20211;-59
2023/09/22 09:42:18;;;;;;;2.03;0.50;;;20.40;99.90;;;;;;5012342;28;20262;-60
2023/09/22 09:44:50;;;;;;;3.63;0.85;;;20.40;99.90;;;;;;5012327;28;20289;-60
2023/09/22 09:47:22;;;;;;;0.95;0.50;;;20.40;99.90;;;;;;5015791;28;20214;-62
2023/09/22 09:49:54;;;;;;;0.45;0.40;;;20.40;99.90;;;;;;5015571;28;20202;-61
2023/09/22 09:52:24;;;;;;;3.47;0.60;;;20.40;99.90;;;;;;5016860;28;20256;-62
2023/09/22 09:54:58;;;;;;;0.40;0.40;;;20.70;99.90;;;;;;5018982;28;20663;-62
2023/09/22 09:57:26;;;;;;;1.95;0.60;;;21.10;99.90;;;;;;5017872;28;20592;-62
2023/09/22 09:59:56;;;;;;;1.40;0.68;;;21.30;99.90;;;;;;5018840;28;20603;-62
2023/09/22 10:02:24;;;;;;;3.08;0.65;;;21.30;99.90;;;;;;5017935;28;20289;-60
2023/09/22 10:04:52;;;;;;;1.27;0.50;;;21.40;99.90;;;;;;5018054;28;21438;-62
2023/09/22 10:07:19;;;;;;;0.60;0.60;;;21.70;99.90;;;;;;5014937;28;20211;-60
2023/09/22 10:09:48;;;;;;;1.95;0.40;;;22.00;99.90;;;;;;5012365;28;20298;-62
2023/09/22 10:12:15;;;;;;;3.22;0.85;;;22.30;99.90;;;;;;5014193;28;20202;-61
2023/09/22 10:14:43;;;;;;;0.80;0.60;;;22.70;99.90;;;;;;5014201;28;20263;-63
2023/09/22 10:17:21;;;;;;;2.13;0.70;;;23.00;99.90;;;;;;5014059;28;20210;-63
2023/09/22 10:19:50;;;;;;;2.45;0.80;;;23.20;99.90;;;;;;5013562;28;20210;-61
2023/09/22 10:22:17;;;;;;;2.40;0.65;;;23.30;99.90;;;;;;5012245;28;20242;-63
2023/09/22 10:24:46;;;;;;;1.23;0.60;;;23.60;99.90;;;;;;5009842;28;20231;-63
2023/09/22 10:27:28;;;;;;;1.27;0.52;;;23.50;99.90;;;;;;5020039;28;20214;-63
2023/09/22 10:29:56;;;;;;;4.72;0.65;;;23.80;99.90;;;;;;5013811;28;20230;-63
2023/09/22 10:32:27;;;;;;;0.85;0.50;;;23.80;99.90;;;;;;5013582;28;20234;-62
2023/09/22 10:34:57;;;;;;;4.30;0.60;;;23.20;99.90;;;;;;5027303;23;20222;-56
2023/09/22 10:37:26;;;;;;;0.95;0.77;;;22.70;99.90;;;;;;5013758;28;20199;-56
2023/09/22 10:39:56;;;;;;;2.83;0.70;;;22.40;99.90;;;;;;5013405;28;20214;-58
2023/09/22 10:42:24;;;;;;;3.08;0.65;;;22.00;99.90;;;;;;5009727;28;20304;-57
2023/09/22 10:44:59;;;;;;;3.63;0.75;;;21.70;99.90;;;;;;5013086;28;20258;-58
2023/09/22 10:47:40;;;;;;;2.15;0.70;;;21.30;99.90;;;;;;5005194;28;20249;-56
2023/09/22 10:50:19;;;;;;;3.63;0.75;;;20.90;99.90;;;;;;5006718;28;20217;-58
2023/09/22 10:52:51;;;;;;;1.83;0.60;;;20.70;99.90;;;;;;5013377;28;20290;-58
2023/09/22 10:55:27;;;;;;;1.38;0.63;;;20.60;99.90;;;;;;5013219;28;20711;-55
2023/09/22 10:57:55;;;;;;;1.25;0.90;;;20.50;99.90;;;;;;5010289;28;20285;-57
2023/09/22 11:00:23;;;;;;;1.63;0.55;;;20.40;99.90;;;;;;5008151;28;20210;-58
2023/09/22 11:02:53;;;;;;;2.33;0.65;;;20.30;99.90;;;;;;5012873;28;20266;-57
2023/09/22 11:05:21;;;;;;;2.60;0.60;;;20.20;99.90;;;;;;5012640;28;20254;-58
2023/09/22 11:07:51;;;;;;;0.95;0.70;;;20.20;99.90;;;;;;5012105;28;20210;-57
2023/09/22 11:10:19;;;;;;;2.70;0.55;;;20.10;99.90;;;;;;5013104;28;20318;-58
2023/09/22 11:12:49;;;;;;;4.65;0.80;;;20.00;99.90;;;;;;5013020;28;20238;-57
2023/09/22 11:15:17;;;;;;;1.42;0.68;;;20.20;99.90;;;;;;5012872;28;20222;-56
2023/09/22 11:17:49;;;;;;;2.85;0.82;;;21.10;99.90;;;;;;5012287;28;20242;-61
2023/09/22 11:20:19;;;;;;;1.65;0.65;;;22.10;99.90;;;;;;5012918;28;20206;-61
2023/09/22 11:22:47;;;;;;;1.73;0.70;;;22.80;99.90;;;;;;5012419;28;20770;-61
2023/09/22 11:25:15;;;;;;;3.33;0.82;;;23.10;99.90;;;;;;5012925;28;20322;-59
2023/09/22 11:27:44;;;;;;;5.80;0.80;;;23.10;99.90;;;;;;5012400;28;20207;-59
2023/09/22 11:30:15;;;;;;;1.73;0.73;;;23.10;99.90;;;;;;5012905;28;20249;-59
2023/09/22 11:32:44;;;;;;;2.00;0.77;;;23.30;99.90;;;;;;5011883;28;20203;-59
2023/09/22 11:35:37;;;;;;;1.83;0.70;;;23.60;99.90;;;;;;5012562;28;20238;-59
2023/09/22 11:38:26;;;;;;;0.82;0.63;;;23.40;99.90;;;;;;5012280;28;20211;-59
2023/09/22 11:41:03;;;;;;;0.93;0.70;;;23.50;99.90;;;;;;5012447;28;20213;-59
2023/09/22 11:43:31;;;;;;;3.75;0.65;;;23.30;99.90;;;;;;5012442;28;20222;-59
2023/09/22 11:46:09;;;;;;;0.82;0.63;;;23.40;99.90;;;;;;5012487;28;20234;-59
2023/09/22 11:48:56;;;;;;;1.45;0.80;;;23.00;99.90;;;;;;5012173;28;20672;-59
2023/09/22 11:54:19;;;;;;;1.83;0.75;;;22.90;99.90;;;;;;5088880;28;21139;-59
2023/09/22 11:56:47;;;;;;;3.20;0.70;;;22.50;99.90;;;;;;5070401;28;20204;-61
2023/09/22 11:59:17;;;;;;;4.53;0.70;;;23.00;99.90;;;;;;5067241;28;20269;-60
2023/09/22 12:01:46;;;;;;;2.22;0.73;;;23.50;99.90;;;;;;5067367;28;20680;-61
2023/09/22 12:04:14;;;;;;;4.63;0.93;;;24.30;99.90;;;;;;5068168;28;20220;-61
2023/09/22 12:06:42;;;;;;;1.40;0.70;;;24.90;99.90;;;;;;5068081;28;20226;-61
2023/09/22 12:09:11;;;;;;;1.63;0.80;;;25.10;99.90;;;;;;5068232;28;20200;-61
2023/09/22 12:11:41;;;;;;;0.93;0.70;;;25.20;99.90;;;;;;5067956;28;20212;-61
2023/09/22 12:14:09;;;;;;;1.00;0.50;;;25.10;99.90;;;;;;5060708;28;20298;-61
2023/09/22 12:16:38;;;;;;;2.65;0.90;;;25.30;99.90;;;;;;5067797;28;20213;-61
2023/09/22 12:19:06;;;;;;;1.23;0.77;;;24.80;99.90;;;;;;5060244;28;20209;-61
2023/09/22 12:21:35;;;;;;;2.78;0.82;;;24.20;99.90;;;;;;5068067;28;20633;-61
2023/09/22 12:24:03;;;;;;;1.58;0.88;;;23.80;99.90;;;;;;5076311;28;20201;-61
2023/09/22 12:26:31;;;;;;;2.60;0.70;;;24.00;99.90;;;;;;5068142;28;20229;-60
2023/09/22 12:29:03;;;;;;;0.82;0.70;;;24.30;99.90;;;;;;5075792;28;20215;-61
2023/09/22 12:31:33;;;;;;;1.77;0.68;;;25.00;99.90;;;;;;5067956;28;20729;-61
2023/09/22 12:34:01;;;;;;;2.20;1.15;;;25.50;99.90;;;;;;5067467;28;20221;-60
2023/09/22 12:36:29;;;;;;;0.63;0.63;;;26.10;99.90;;;;;;5068074;28;20267;-61
2023/09/22 12:38:57;;;;;;;2.92;0.70;;;26.60;99.90;;;;;;5067401;28;20681;-61
2023/09/22 12:41:25;;;;;;;1.65;0.80;;;26.80;99.90;;;;;;5067658;28;20200;-61
2023/09/22 12:43:53;;;;;;;2.53;0.75;;;26.90;99.90;;;;;;5067522;28;20236;-61
2023/09/22 12:46:23;;;;;;;1.00;0.80;;;27.20;99.70;;;;;;5067805;28;20224;-61
2023/09/22 12:48:51;;;;;;;2.10;0.80;;;27.50;98.90;;;;;;5067059;28;20244;-61
2023/09/22 12:51:19;;;;;;;3.55;1.10;;;27.70;99.00;;;;;;5067628;28;20579;-61
2023/09/22 12:53:47;;;;;;;2.85;1.02;;;27.40;98.50;;;;;;5066788;28;20305;-61
2023/09/22 12:56:15;;;;;;;1.23;0.77;;;26.60;98.40;;;;;;5067667;28;20374;-60
2023/09/22 12:58:43;;;;;;;1.80;0.88;;;26.60;99.30;;;;;;5067129;28;20251;-61
2023/09/22 13:01:11;;;;;;;3.05;0.68;;;26.70;99.20;;;;;;5067394;28;20271;-61